sensor_id;sensor_type;location;lat;lon;timestamp;P1;durP1;ratioP1;P2;durP2;ratioP2
13592;SDS011;6867;50.998;4.250;2023-01-10T00:01:20;10.67;;;3.27;;
13592;SDS011;6867;50.998;4.250;2023-01-10T00:03:46;6.40;;;2.57;;
13592;SDS011;6867;50.998;4.250;2023-01-10T00:06:14;11.60;;;2.63;;
13592;SDS011;6867;50.998;4.250;2023-01-10T00:08:40;7.57;;;2.33;;
13592;SDS011;6867;50.998;4.250;2023-01-10T00:11:07;14.80;;;3.03;;
13592;SDS011;6867;50.998;4.250;2023-01-10T00:13:48;13.53;;;2.87;;
13592;SDS011;6867;50.998;4.250;2023-01-10T00:16:19;7.87;;;2.60;;
13592;SDS011;6867;50.998;4.250;2023-01-10T00:18:46;9.67;;;2.40;;
13592;SDS011;6867;50.998;4.250;2023-01-10T00:21:13;7.87;;;2.63;;
13592;SDS011;6867;50.998;4.250;2023-01-10T00:23:41;15.43;;;2.90;;
13592;SDS011;6867;50.998;4.250;2023-01-10T00:26:09;14.80;;;2.50;;
13592;SDS011;6867;50.998;4.250;2023-01-10T00:28:36;14.20;;;3.20;;
13592;SDS011;6867;50.998;4.250;2023-01-10T00:31:05;15.80;;;2.57;;
13592;SDS011;6867;50.998;4.250;2023-01-10T00:33:32;10.10;;;2.47;;
13592;SDS011;6867;50.998;4.250;2023-01-10T00:36:01;6.60;;;2.37;;
13592;SDS011;6867;50.998;4.250;2023-01-10T00:38:29;8.80;;;3.03;;
13592;SDS011;6867;50.998;4.250;2023-01-10T00:40:57;12.07;;;3.17;;
13592;SDS011;6867;50.998;4.250;2023-01-10T00:43:23;11.10;;;2.53;;
13592;SDS011;6867;50.998;4.250;2023-01-10T00:46:20;12.53;;;3.10;;
13592;SDS011;6867;50.998;4.250;2023-01-10T00:48:47;8.93;;;2.17;;
13592;SDS011;6867;50.998;4.250;2023-01-10T00:51:14;9.93;;;2.73;;
13592;SDS011;6867;50.998;4.250;2023-01-10T00:53:40;16.70;;;2.87;;
13592;SDS011;6867;50.998;4.250;2023-01-10T00:56:07;14.67;;;3.13;;
13592;SDS011;6867;50.998;4.250;2023-01-10T00:58:34;11.37;;;2.30;;
13592;SDS011;6867;50.998;4.250;2023-01-10T01:01:00;5.10;;;2.30;;
13592;SDS011;6867;50.998;4.250;2023-01-10T01:03:28;14.83;;;2.63;;
13592;SDS011;6867;50.998;4.250;2023-01-10T01:05:57;10.67;;;2.70;;
13592;SDS011;6867;50.998;4.250;2023-01-10T01:08:30;9.07;;;2.60;;
13592;SDS011;6867;50.998;4.250;2023-01-10T01:10:57;12.37;;;2.57;;
13592;SDS011;6867;50.998;4.250;2023-01-10T01:13:24;11.17;;;2.60;;
13592;SDS011;6867;50.998;4.250;2023-01-10T01:15:51;10.27;;;2.50;;
13592;SDS011;6867;50.998;4.250;2023-01-10T01:18:19;8.50;;;2.70;;
13592;SDS011;6867;50.998;4.250;2023-01-10T01:20:51;11.43;;;2.53;;
13592;SDS011;6867;50.998;4.250;2023-01-10T01:23:20;10.57;;;2.53;;
13592;SDS011;6867;50.998;4.250;2023-01-10T01:25:48;8.23;;;2.30;;
13592;SDS011;6867;50.998;4.250;2023-01-10T01:28:15;13.87;;;2.90;;
13592;SDS011;6867;50.998;4.250;2023-01-10T01:30:42;12.83;;;2.57;;
13592;SDS011;6867;50.998;4.250;2023-01-10T01:33:09;16.97;;;2.33;;
13592;SDS011;6867;50.998;4.250;2023-01-10T01:35:36;13.60;;;2.50;;
13592;SDS011;6867;50.998;4.250;2023-01-10T01:38:04;7.37;;;2.57;;
13592;SDS011;6867;50.998;4.250;2023-01-10T01:40:31;12.90;;;3.10;;
13592;SDS011;6867;50.998;4.250;2023-01-10T01:42:57;7.10;;;2.40;;
13592;SDS011;6867;50.998;4.250;2023-01-10T01:45:37;18.93;;;3.37;;
13592;SDS011;6867;50.998;4.250;2023-01-10T01:48:06;10.63;;;3.10;;
13592;SDS011;6867;50.998;4.250;2023-01-10T01:50:39;13.47;;;2.47;;
13592;SDS011;6867;50.998;4.250;2023-01-10T01:53:12;11.97;;;3.17;;
13592;SDS011;6867;50.998;4.250;2023-01-10T01:55:42;13.40;;;2.67;;
13592;SDS011;6867;50.998;4.250;2023-01-10T01:58:12;10.30;;;2.50;;
13592;SDS011;6867;50.998;4.250;2023-01-10T02:00:43;6.13;;;2.10;;
13592;SDS011;6867;50.998;4.250;2023-01-10T02:03:10;10.53;;;2.30;;
13592;SDS011;6867;50.998;4.250;2023-01-10T02:05:39;9.07;;;2.60;;
13592;SDS011;6867;50.998;4.250;2023-01-10T02:08:07;16.20;;;2.80;;
13592;SDS011;6867;50.998;4.250;2023-01-10T02:10:37;17.87;;;3.20;;
13592;SDS011;6867;50.998;4.250;2023-01-10T02:13:10;11.00;;;2.77;;
13592;SDS011;6867;50.998;4.250;2023-01-10T02:15:40;14.40;;;2.77;;
13592;SDS011;6867;50.998;4.250;2023-01-10T02:18:07;11.10;;;2.57;;
13592;SDS011;6867;50.998;4.250;2023-01-10T02:20:36;14.67;;;2.60;;
13592;SDS011;6867;50.998;4.250;2023-01-10T02:23:25;18.33;;;3.33;;
13592;SDS011;6867;50.998;4.250;2023-01-10T02:29:22;13.80;;;2.87;;
13592;SDS011;6867;50.998;4.250;2023-01-10T02:32:19;10.67;;;2.83;;
13592;SDS011;6867;50.998;4.250;2023-01-10T02:34:57;18.67;;;2.77;;
13592;SDS011;6867;50.998;4.250;2023-01-10T02:37:35;15.57;;;2.80;;
13592;SDS011;6867;50.998;4.250;2023-01-10T02:40:12;20.37;;;2.90;;
13592;SDS011;6867;50.998;4.250;2023-01-10T02:42:48;16.57;;;3.03;;
13592;SDS011;6867;50.998;4.250;2023-01-10T02:45:23;9.73;;;3.10;;
13592;SDS011;6867;50.998;4.250;2023-01-10T02:47:56;18.77;;;3.17;;
13592;SDS011;6867;50.998;4.250;2023-01-10T02:50:34;21.23;;;2.97;;
13592;SDS011;6867;50.998;4.250;2023-01-10T02:53:10;14.63;;;3.17;;
13592;SDS011;6867;50.998;4.250;2023-01-10T02:55:56;12.20;;;2.47;;
13592;SDS011;6867;50.998;4.250;2023-01-10T02:59:12;17.43;;;3.03;;
13592;SDS011;6867;50.998;4.250;2023-01-10T03:01:56;14.73;;;3.03;;
13592;SDS011;6867;50.998;4.250;2023-01-10T03:04:32;17.00;;;3.13;;
13592;SDS011;6867;50.998;4.250;2023-01-10T03:07:11;15.53;;;2.63;;
13592;SDS011;6867;50.998;4.250;2023-01-10T03:09:46;12.00;;;2.73;;
13592;SDS011;6867;50.998;4.250;2023-01-10T03:12:20;12.03;;;2.67;;
13592;SDS011;6867;50.998;4.250;2023-01-10T03:14:50;13.17;;;2.57;;
13592;SDS011;6867;50.998;4.250;2023-01-10T03:17:19;12.23;;;2.73;;
13592;SDS011;6867;50.998;4.250;2023-01-10T03:19:50;19.33;;;2.73;;
13592;SDS011;6867;50.998;4.250;2023-01-10T03:22:19;15.93;;;3.10;;
13592;SDS011;6867;50.998;4.250;2023-01-10T03:24:48;13.63;;;3.00;;
13592;SDS011;6867;50.998;4.250;2023-01-10T03:27:18;14.83;;;2.60;;
13592;SDS011;6867;50.998;4.250;2023-01-10T03:29:50;15.83;;;3.20;;
13592;SDS011;6867;50.998;4.250;2023-01-10T03:32:22;16.57;;;3.00;;
13592;SDS011;6867;50.998;4.250;2023-01-10T03:34:54;12.57;;;2.63;;
13592;SDS011;6867;50.998;4.250;2023-01-10T03:37:23;13.60;;;2.73;;
13592;SDS011;6867;50.998;4.250;2023-01-10T03:39:59;15.37;;;3.50;;
13592;SDS011;6867;50.998;4.250;2023-01-10T03:42:34;18.53;;;2.87;;
13592;SDS011;6867;50.998;4.250;2023-01-10T03:45:24;15.40;;;2.83;;
13592;SDS011;6867;50.998;4.250;2023-01-10T03:47:55;16.57;;;3.00;;
13592;SDS011;6867;50.998;4.250;2023-01-10T03:50:27;16.43;;;2.50;;
13592;SDS011;6867;50.998;4.250;2023-01-10T03:52:55;18.30;;;3.03;;
13592;SDS011;6867;50.998;4.250;2023-01-10T03:55:23;6.63;;;2.43;;
13592;SDS011;6867;50.998;4.250;2023-01-10T03:57:53;15.83;;;3.03;;
13592;SDS011;6867;50.998;4.250;2023-01-10T04:00:20;14.70;;;2.80;;
13592;SDS011;6867;50.998;4.250;2023-01-10T04:02:48;12.40;;;2.70;;
13592;SDS011;6867;50.998;4.250;2023-01-10T04:05:15;10.10;;;2.30;;
13592;SDS011;6867;50.998;4.250;2023-01-10T04:07:43;11.93;;;2.70;;
13592;SDS011;6867;50.998;4.250;2023-01-10T04:10:11;17.27;;;3.60;;
13592;SDS011;6867;50.998;4.250;2023-01-10T04:12:38;15.40;;;3.67;;
13592;SDS011;6867;50.998;4.250;2023-01-10T04:15:05;8.20;;;3.00;;
13592;SDS011;6867;50.998;4.250;2023-01-10T04:17:32;18.57;;;2.50;;
13592;SDS011;6867;50.998;4.250;2023-01-10T04:19:59;14.00;;;3.17;;
13592;SDS011;6867;50.998;4.250;2023-01-10T04:22:26;23.20;;;3.00;;
13592;SDS011;6867;50.998;4.250;2023-01-10T04:24:54;11.87;;;2.77;;
13592;SDS011;6867;50.998;4.250;2023-01-10T04:27:21;17.73;;;3.00;;
13592;SDS011;6867;50.998;4.250;2023-01-10T04:29:48;13.13;;;2.83;;
13592;SDS011;6867;50.998;4.250;2023-01-10T04:32:15;13.40;;;3.03;;
13592;SDS011;6867;50.998;4.250;2023-01-10T04:34:41;13.30;;;3.20;;
13592;SDS011;6867;50.998;4.250;2023-01-10T04:37:08;20.90;;;2.80;;
13592;SDS011;6867;50.998;4.250;2023-01-10T04:39:35;13.67;;;3.00;;
13592;SDS011;6867;50.998;4.250;2023-01-10T04:42:03;13.07;;;2.77;;
13592;SDS011;6867;50.998;4.250;2023-01-10T04:44:30;15.27;;;2.87;;
13592;SDS011;6867;50.998;4.250;2023-01-10T04:46:56;29.27;;;3.70;;
13592;SDS011;6867;50.998;4.250;2023-01-10T04:49:23;13.03;;;2.93;;
13592;SDS011;6867;50.998;4.250;2023-01-10T04:51:50;16.67;;;3.33;;
13592;SDS011;6867;50.998;4.250;2023-01-10T04:54:18;18.20;;;3.30;;
13592;SDS011;6867;50.998;4.250;2023-01-10T04:56:45;9.83;;;2.47;;
13592;SDS011;6867;50.998;4.250;2023-01-10T04:59:13;15.07;;;2.87;;
13592;SDS011;6867;50.998;4.250;2023-01-10T05:01:40;16.77;;;3.07;;
13592;SDS011;6867;50.998;4.250;2023-01-10T05:04:07;18.17;;;3.00;;
13592;SDS011;6867;50.998;4.250;2023-01-10T05:06:34;9.80;;;3.23;;
13592;SDS011;6867;50.998;4.250;2023-01-10T05:09:04;14.80;;;2.73;;
13592;SDS011;6867;50.998;4.250;2023-01-10T05:11:31;14.97;;;3.20;;
13592;SDS011;6867;50.998;4.250;2023-01-10T05:13:58;20.83;;;3.87;;
13592;SDS011;6867;50.998;4.250;2023-01-10T05:16:26;15.20;;;3.00;;
13592;SDS011;6867;50.998;4.250;2023-01-10T05:18:53;20.17;;;3.53;;
13592;SDS011;6867;50.998;4.250;2023-01-10T05:21:19;8.57;;;2.53;;
13592;SDS011;6867;50.998;4.250;2023-01-10T05:23:46;10.70;;;2.30;;
13592;SDS011;6867;50.998;4.250;2023-01-10T05:26:16;23.53;;;4.00;;
13592;SDS011;6867;50.998;4.250;2023-01-10T05:28:44;14.70;;;3.47;;
13592;SDS011;6867;50.998;4.250;2023-01-10T05:31:12;17.97;;;3.67;;
13592;SDS011;6867;50.998;4.250;2023-01-10T05:33:43;11.87;;;3.00;;
13592;SDS011;6867;50.998;4.250;2023-01-10T05:36:11;21.90;;;3.77;;
13592;SDS011;6867;50.998;4.250;2023-01-10T05:38:39;18.50;;;3.50;;
13592;SDS011;6867;50.998;4.250;2023-01-10T05:41:06;13.57;;;3.00;;
13592;SDS011;6867;50.998;4.250;2023-01-10T05:43:32;12.10;;;3.13;;
13592;SDS011;6867;50.998;4.250;2023-01-10T05:45:59;13.13;;;3.10;;
13592;SDS011;6867;50.998;4.250;2023-01-10T05:48:26;10.17;;;3.23;;
13592;SDS011;6867;50.998;4.250;2023-01-10T05:50:54;18.37;;;3.33;;
13592;SDS011;6867;50.998;4.250;2023-01-10T05:53:21;24.73;;;4.50;;
13592;SDS011;6867;50.998;4.250;2023-01-10T05:55:52;14.33;;;4.37;;
13592;SDS011;6867;50.998;4.250;2023-01-10T05:58:19;12.77;;;2.73;;
13592;SDS011;6867;50.998;4.250;2023-01-10T06:00:46;14.43;;;3.03;;
13592;SDS011;6867;50.998;4.250;2023-01-10T06:03:13;20.47;;;3.60;;
13592;SDS011;6867;50.998;4.250;2023-01-10T06:05:40;14.83;;;2.57;;
13592;SDS011;6867;50.998;4.250;2023-01-10T06:08:08;15.90;;;3.07;;
13592;SDS011;6867;50.998;4.250;2023-01-10T06:10:35;19.60;;;3.23;;
13592;SDS011;6867;50.998;4.250;2023-01-10T06:13:02;12.90;;;3.10;;
13592;SDS011;6867;50.998;4.250;2023-01-10T06:15:30;18.13;;;3.43;;
13592;SDS011;6867;50.998;4.250;2023-01-10T06:17:57;16.63;;;2.87;;
13592;SDS011;6867;50.998;4.250;2023-01-10T06:20:23;10.23;;;2.87;;
13592;SDS011;6867;50.998;4.250;2023-01-10T06:22:50;17.30;;;3.20;;
13592;SDS011;6867;50.998;4.250;2023-01-10T06:25:18;19.07;;;3.10;;
13592;SDS011;6867;50.998;4.250;2023-01-10T06:27:45;15.20;;;3.07;;
13592;SDS011;6867;50.998;4.250;2023-01-10T06:30:12;17.73;;;3.07;;
13592;SDS011;6867;50.998;4.250;2023-01-10T06:32:39;17.17;;;3.80;;
13592;SDS011;6867;50.998;4.250;2023-01-10T06:35:06;21.13;;;3.27;;
13592;SDS011;6867;50.998;4.250;2023-01-10T06:37:34;15.57;;;3.23;;
13592;SDS011;6867;50.998;4.250;2023-01-10T06:40:01;15.07;;;2.97;;
13592;SDS011;6867;50.998;4.250;2023-01-10T06:42:29;23.17;;;3.73;;
13592;SDS011;6867;50.998;4.250;2023-01-10T06:44:55;18.53;;;3.70;;
13592;SDS011;6867;50.998;4.250;2023-01-10T06:47:22;16.70;;;2.63;;
13592;SDS011;6867;50.998;4.250;2023-01-10T06:49:49;14.30;;;3.27;;
13592;SDS011;6867;50.998;4.250;2023-01-10T06:52:15;20.83;;;3.50;;
13592;SDS011;6867;50.998;4.250;2023-01-10T06:54:42;14.20;;;3.40;;
13592;SDS011;6867;50.998;4.250;2023-01-10T06:57:09;16.57;;;3.50;;
13592;SDS011;6867;50.998;4.250;2023-01-10T06:59:37;11.30;;;2.40;;
13592;SDS011;6867;50.998;4.250;2023-01-10T07:02:04;16.07;;;3.60;;
13592;SDS011;6867;50.998;4.250;2023-01-10T07:04:31;10.00;;;2.73;;
13592;SDS011;6867;50.998;4.250;2023-01-10T07:06:57;13.10;;;3.30;;
13592;SDS011;6867;50.998;4.250;2023-01-10T07:09:24;17.37;;;3.47;;
13592;SDS011;6867;50.998;4.250;2023-01-10T07:11:51;12.67;;;3.60;;
13592;SDS011;6867;50.998;4.250;2023-01-10T07:14:19;17.67;;;3.23;;
13592;SDS011;6867;50.998;4.250;2023-01-10T07:16:48;20.17;;;4.07;;
13592;SDS011;6867;50.998;4.250;2023-01-10T07:19:15;11.77;;;2.83;;
13592;SDS011;6867;50.998;4.250;2023-01-10T07:21:44;14.00;;;2.83;;
13592;SDS011;6867;50.998;4.250;2023-01-10T07:24:10;13.43;;;2.60;;
13592;SDS011;6867;50.998;4.250;2023-01-10T07:26:37;13.00;;;2.87;;
13592;SDS011;6867;50.998;4.250;2023-01-10T07:29:04;14.60;;;3.33;;
13592;SDS011;6867;50.998;4.250;2023-01-10T07:31:31;15.27;;;3.33;;
13592;SDS011;6867;50.998;4.250;2023-01-10T07:33:59;14.97;;;3.37;;
13592;SDS011;6867;50.998;4.250;2023-01-10T07:36:25;16.57;;;2.97;;
13592;SDS011;6867;50.998;4.250;2023-01-10T07:38:52;11.03;;;3.30;;
13592;SDS011;6867;50.998;4.250;2023-01-10T07:41:19;23.33;;;3.17;;
13592;SDS011;6867;50.998;4.250;2023-01-10T07:43:46;13.27;;;2.70;;
13592;SDS011;6867;50.998;4.250;2023-01-10T07:46:13;13.27;;;2.63;;
13592;SDS011;6867;50.998;4.250;2023-01-10T07:48:40;9.20;;;2.87;;
13592;SDS011;6867;50.998;4.250;2023-01-10T07:51:08;10.97;;;3.07;;
13592;SDS011;6867;50.998;4.250;2023-01-10T07:53:35;10.30;;;2.57;;
13592;SDS011;6867;50.998;4.250;2023-01-10T07:56:02;15.10;;;3.53;;
13592;SDS011;6867;50.998;4.250;2023-01-10T07:58:29;15.63;;;3.03;;
13592;SDS011;6867;50.998;4.250;2023-01-10T08:00:57;11.97;;;2.73;;
13592;SDS011;6867;50.998;4.250;2023-01-10T08:03:24;12.40;;;2.83;;
13592;SDS011;6867;50.998;4.250;2023-01-10T08:05:56;10.07;;;3.30;;
13592;SDS011;6867;50.998;4.250;2023-01-10T08:08:24;15.40;;;3.40;;
13592;SDS011;6867;50.998;4.250;2023-01-10T08:10:51;12.17;;;3.03;;
13592;SDS011;6867;50.998;4.250;2023-01-10T08:13:18;17.43;;;3.50;;
13592;SDS011;6867;50.998;4.250;2023-01-10T08:15:45;10.80;;;3.03;;
13592;SDS011;6867;50.998;4.250;2023-01-10T08:18:14;15.43;;;3.03;;
13592;SDS011;6867;50.998;4.250;2023-01-10T08:20:41;19.97;;;3.30;;
13592;SDS011;6867;50.998;4.250;2023-01-10T08:23:07;14.30;;;3.30;;
13592;SDS011;6867;50.998;4.250;2023-01-10T08:25:35;11.20;;;2.50;;
13592;SDS011;6867;50.998;4.250;2023-01-10T08:28:02;17.60;;;2.90;;
13592;SDS011;6867;50.998;4.250;2023-01-10T08:30:29;17.57;;;3.37;;
13592;SDS011;6867;50.998;4.250;2023-01-10T08:32:56;14.97;;;3.13;;
13592;SDS011;6867;50.998;4.250;2023-01-10T08:35:23;7.87;;;2.73;;
13592;SDS011;6867;50.998;4.250;2023-01-10T08:37:49;16.53;;;3.07;;
13592;SDS011;6867;50.998;4.250;2023-01-10T08:40:16;11.10;;;2.80;;
13592;SDS011;6867;50.998;4.250;2023-01-10T08:42:44;7.43;;;2.53;;
13592;SDS011;6867;50.998;4.250;2023-01-10T08:45:11;10.77;;;2.40;;
13592;SDS011;6867;50.998;4.250;2023-01-10T08:47:38;9.20;;;2.70;;
13592;SDS011;6867;50.998;4.250;2023-01-10T08:50:05;12.63;;;2.90;;
13592;SDS011;6867;50.998;4.250;2023-01-10T08:52:32;8.67;;;2.83;;
13592;SDS011;6867;50.998;4.250;2023-01-10T08:54:59;12.47;;;2.90;;
13592;SDS011;6867;50.998;4.250;2023-01-10T08:57:25;14.27;;;2.90;;
13592;SDS011;6867;50.998;4.250;2023-01-10T08:59:57;10.70;;;2.93;;
13592;SDS011;6867;50.998;4.250;2023-01-10T09:02:24;8.30;;;2.97;;
13592;SDS011;6867;50.998;4.250;2023-01-10T09:04:51;11.70;;;2.87;;
13592;SDS011;6867;50.998;4.250;2023-01-10T09:07:17;9.07;;;2.50;;
13592;SDS011;6867;50.998;4.250;2023-01-10T09:09:44;11.73;;;3.07;;
13592;SDS011;6867;50.998;4.250;2023-01-10T09:12:11;19.73;;;3.60;;
13592;SDS011;6867;50.998;4.250;2023-01-10T09:14:55;22.77;;;3.20;;
13592;SDS011;6867;50.998;4.250;2023-01-10T09:17:23;8.63;;;2.57;;
13592;SDS011;6867;50.998;4.250;2023-01-10T09:19:50;9.07;;;2.53;;
13592;SDS011;6867;50.998;4.250;2023-01-10T09:22:17;19.27;;;3.47;;
13592;SDS011;6867;50.998;4.250;2023-01-10T09:24:43;10.63;;;3.00;;
13592;SDS011;6867;50.998;4.250;2023-01-10T09:27:10;13.93;;;3.40;;
13592;SDS011;6867;50.998;4.250;2023-01-10T09:29:37;18.27;;;3.27;;
13592;SDS011;6867;50.998;4.250;2023-01-10T09:32:04;14.27;;;2.73;;
13592;SDS011;6867;50.998;4.250;2023-01-10T09:34:32;12.83;;;2.53;;
13592;SDS011;6867;50.998;4.250;2023-01-10T09:36:59;16.43;;;3.40;;
13592;SDS011;6867;50.998;4.250;2023-01-10T09:39:26;14.93;;;3.80;;
13592;SDS011;6867;50.998;4.250;2023-01-10T09:42:03;13.87;;;3.13;;
13592;SDS011;6867;50.998;4.250;2023-01-10T09:44:41;10.73;;;3.53;;
13592;SDS011;6867;50.998;4.250;2023-01-10T09:47:17;16.83;;;3.57;;
13592;SDS011;6867;50.998;4.250;2023-01-10T09:49:54;13.60;;;3.13;;
13592;SDS011;6867;50.998;4.250;2023-01-10T09:52:40;13.00;;;3.00;;
13592;SDS011;6867;50.998;4.250;2023-01-10T09:55:15;13.07;;;3.10;;
13592;SDS011;6867;50.998;4.250;2023-01-10T09:57:45;14.00;;;3.30;;
13592;SDS011;6867;50.998;4.250;2023-01-10T10:00:16;9.50;;;2.57;;
13592;SDS011;6867;50.998;4.250;2023-01-10T10:02:47;14.27;;;3.10;;
13592;SDS011;6867;50.998;4.250;2023-01-10T10:05:19;18.03;;;2.80;;
13592;SDS011;6867;50.998;4.250;2023-01-10T10:07:51;15.93;;;3.10;;
13592;SDS011;6867;50.998;4.250;2023-01-10T10:10:23;10.63;;;2.80;;
13592;SDS011;6867;50.998;4.250;2023-01-10T10:13:04;11.93;;;2.90;;
13592;SDS011;6867;50.998;4.250;2023-01-10T10:15:45;12.13;;;3.10;;
13592;SDS011;6867;50.998;4.250;2023-01-10T10:18:23;19.07;;;3.73;;
13592;SDS011;6867;50.998;4.250;2023-01-10T10:20:59;17.50;;;2.83;;
13592;SDS011;6867;50.998;4.250;2023-01-10T10:23:40;15.37;;;2.87;;
13592;SDS011;6867;50.998;4.250;2023-01-10T10:26:21;9.43;;;2.87;;
13592;SDS011;6867;50.998;4.250;2023-01-10T10:35:01;7.37;;;2.57;;
13592;SDS011;6867;50.998;4.250;2023-01-10T10:37:34;13.47;;;3.13;;
13592;SDS011;6867;50.998;4.250;2023-01-10T10:40:14;8.23;;;2.60;;
13592;SDS011;6867;50.998;4.250;2023-01-10T10:42:43;10.70;;;3.03;;
13592;SDS011;6867;50.998;4.250;2023-01-10T10:45:14;13.03;;;2.80;;
13592;SDS011;6867;50.998;4.250;2023-01-10T10:47:45;9.03;;;2.60;;
13592;SDS011;6867;50.998;4.250;2023-01-10T10:50:20;14.27;;;2.73;;
13592;SDS011;6867;50.998;4.250;2023-01-10T10:52:55;14.47;;;2.57;;
13592;SDS011;6867;50.998;4.250;2023-01-10T10:55:26;9.90;;;2.90;;
13592;SDS011;6867;50.998;4.250;2023-01-10T10:57:55;13.43;;;2.87;;
13592;SDS011;6867;50.998;4.250;2023-01-10T11:00:22;7.00;;;2.57;;
13592;SDS011;6867;50.998;4.250;2023-01-10T11:02:50;12.80;;;3.50;;
13592;SDS011;6867;50.998;4.250;2023-01-10T11:05:22;10.83;;;3.20;;
13592;SDS011;6867;50.998;4.250;2023-01-10T11:07:59;16.13;;;3.97;;
13592;SDS011;6867;50.998;4.250;2023-01-10T11:10:31;13.07;;;3.40;;
13592;SDS011;6867;50.998;4.250;2023-01-10T11:13:03;10.70;;;2.80;;
13592;SDS011;6867;50.998;4.250;2023-01-10T11:15:38;14.97;;;3.87;;
13592;SDS011;6867;50.998;4.250;2023-01-10T11:18:09;14.20;;;2.93;;
13592;SDS011;6867;50.998;4.250;2023-01-10T11:20:45;17.00;;;3.13;;
13592;SDS011;6867;50.998;4.250;2023-01-10T11:23:22;8.80;;;2.60;;
13592;SDS011;6867;50.998;4.250;2023-01-10T11:25:58;11.73;;;3.17;;
13592;SDS011;6867;50.998;4.250;2023-01-10T11:28:27;12.90;;;2.53;;
13592;SDS011;6867;50.998;4.250;2023-01-10T11:30:56;12.33;;;3.20;;
13592;SDS011;6867;50.998;4.250;2023-01-10T11:33:25;15.47;;;2.93;;
13592;SDS011;6867;50.998;4.250;2023-01-10T11:35:56;17.10;;;2.97;;
13592;SDS011;6867;50.998;4.250;2023-01-10T11:38:26;12.30;;;3.00;;
13592;SDS011;6867;50.998;4.250;2023-01-10T11:40:55;14.77;;;3.00;;
13592;SDS011;6867;50.998;4.250;2023-01-10T11:43:25;7.87;;;2.30;;
13592;SDS011;6867;50.998;4.250;2023-01-10T11:45:54;12.37;;;3.03;;
13592;SDS011;6867;50.998;4.250;2023-01-10T11:48:23;6.43;;;1.73;;
13592;SDS011;6867;50.998;4.250;2023-01-10T11:50:52;12.57;;;3.03;;
13592;SDS011;6867;50.998;4.250;2023-01-10T11:53:34;15.77;;;2.67;;
13592;SDS011;6867;50.998;4.250;2023-01-10T11:56:04;12.63;;;3.30;;
13592;SDS011;6867;50.998;4.250;2023-01-10T11:58:34;11.70;;;3.00;;
13592;SDS011;6867;50.998;4.250;2023-01-10T12:01:04;13.80;;;3.00;;
13592;SDS011;6867;50.998;4.250;2023-01-10T12:03:31;12.40;;;2.67;;
13592;SDS011;6867;50.998;4.250;2023-01-10T12:06:03;9.77;;;2.80;;
13592;SDS011;6867;50.998;4.250;2023-01-10T12:08:35;12.37;;;3.17;;
13592;SDS011;6867;50.998;4.250;2023-01-10T12:11:04;16.50;;;3.10;;
13592;SDS011;6867;50.998;4.250;2023-01-10T12:13:42;17.00;;;3.40;;
13592;SDS011;6867;50.998;4.250;2023-01-10T12:16:16;11.20;;;2.47;;
13592;SDS011;6867;50.998;4.250;2023-01-10T12:18:46;10.80;;;2.57;;
13592;SDS011;6867;50.998;4.250;2023-01-10T12:21:14;17.57;;;3.00;;
13592;SDS011;6867;50.998;4.250;2023-01-10T12:23:46;17.17;;;3.70;;
13592;SDS011;6867;50.998;4.250;2023-01-10T12:26:15;10.93;;;2.50;;
13592;SDS011;6867;50.998;4.250;2023-01-10T12:28:44;12.57;;;2.53;;
13592;SDS011;6867;50.998;4.250;2023-01-10T12:31:15;12.67;;;2.90;;
13592;SDS011;6867;50.998;4.250;2023-01-10T12:33:44;10.20;;;2.97;;
13592;SDS011;6867;50.998;4.250;2023-01-10T12:36:15;14.23;;;2.63;;
13592;SDS011;6867;50.998;4.250;2023-01-10T12:38:56;12.70;;;2.70;;
13592;SDS011;6867;50.998;4.250;2023-01-10T12:41:34;9.63;;;2.93;;
13592;SDS011;6867;50.998;4.250;2023-01-10T12:44:26;10.70;;;2.53;;
13592;SDS011;6867;50.998;4.250;2023-01-10T12:46:58;13.87;;;3.10;;
13592;SDS011;6867;50.998;4.250;2023-01-10T12:49:28;6.83;;;2.53;;
13592;SDS011;6867;50.998;4.250;2023-01-10T12:51:59;12.43;;;2.80;;
13592;SDS011;6867;50.998;4.250;2023-01-10T12:54:31;12.23;;;3.67;;
13592;SDS011;6867;50.998;4.250;2023-01-10T12:56:59;13.97;;;3.10;;
13592;SDS011;6867;50.998;4.250;2023-01-10T12:59:30;18.17;;;3.03;;
13592;SDS011;6867;50.998;4.250;2023-01-10T13:02:03;10.93;;;2.57;;
13592;SDS011;6867;50.998;4.250;2023-01-10T13:04:33;6.83;;;2.27;;
13592;SDS011;6867;50.998;4.250;2023-01-10T13:07:03;9.03;;;2.67;;
13592;SDS011;6867;50.998;4.250;2023-01-10T13:09:31;9.13;;;3.00;;
13592;SDS011;6867;50.998;4.250;2023-01-10T13:12:00;10.73;;;2.40;;
13592;SDS011;6867;50.998;4.250;2023-01-10T13:14:33;5.33;;;2.73;;
13592;SDS011;6867;50.998;4.250;2023-01-10T13:17:08;12.23;;;2.43;;
13592;SDS011;6867;50.998;4.250;2023-01-10T13:19:41;6.70;;;2.57;;
13592;SDS011;6867;50.998;4.250;2023-01-10T13:22:16;8.47;;;2.30;;
13592;SDS011;6867;50.998;4.250;2023-01-10T13:24:56;11.43;;;2.20;;
13592;SDS011;6867;50.998;4.250;2023-01-10T13:27:25;8.70;;;2.47;;
13592;SDS011;6867;50.998;4.250;2023-01-10T13:29:55;10.70;;;2.60;;
13592;SDS011;6867;50.998;4.250;2023-01-10T13:32:24;11.17;;;2.57;;
13592;SDS011;6867;50.998;4.250;2023-01-10T13:34:54;9.57;;;2.70;;
13592;SDS011;6867;50.998;4.250;2023-01-10T13:37:35;11.33;;;2.70;;
13592;SDS011;6867;50.998;4.250;2023-01-10T13:40:06;11.57;;;2.90;;
13592;SDS011;6867;50.998;4.250;2023-01-10T13:42:35;8.03;;;2.13;;
13592;SDS011;6867;50.998;4.250;2023-01-10T13:45:23;8.00;;;2.23;;
13592;SDS011;6867;50.998;4.250;2023-01-10T13:48:01;7.57;;;2.73;;
13592;SDS011;6867;50.998;4.250;2023-01-10T13:50:51;11.97;;;2.00;;
13592;SDS011;6867;50.998;4.250;2023-01-10T13:58:56;8.03;;;2.27;;
13592;SDS011;6867;50.998;4.250;2023-01-10T14:01:40;9.33;;;1.87;;
13592;SDS011;6867;50.998;4.250;2023-01-10T14:04:26;5.50;;;2.10;;
13592;SDS011;6867;50.998;4.250;2023-01-10T14:06:55;9.93;;;1.80;;
13592;SDS011;6867;50.998;4.250;2023-01-10T14:09:29;9.30;;;2.67;;
13592;SDS011;6867;50.998;4.250;2023-01-10T14:12:01;5.90;;;2.10;;
13592;SDS011;6867;50.998;4.250;2023-01-10T14:14:31;6.67;;;1.90;;
13592;SDS011;6867;50.998;4.250;2023-01-10T14:17:09;5.93;;;1.50;;
13592;SDS011;6867;50.998;4.250;2023-01-10T14:19:40;9.30;;;1.83;;
13592;SDS011;6867;50.998;4.250;2023-01-10T14:22:20;4.53;;;1.50;;
13592;SDS011;6867;50.998;4.250;2023-01-10T14:24:51;9.20;;;2.23;;
13592;SDS011;6867;50.998;4.250;2023-01-10T14:27:20;3.57;;;1.47;;
13592;SDS011;6867;50.998;4.250;2023-01-10T14:29:48;6.30;;;1.83;;
13592;SDS011;6867;50.998;4.250;2023-01-10T14:32:22;4.13;;;1.60;;
13592;SDS011;6867;50.998;4.250;2023-01-10T14:34:59;5.07;;;1.63;;
13592;SDS011;6867;50.998;4.250;2023-01-10T14:37:28;3.37;;;2.10;;
13592;SDS011;6867;50.998;4.250;2023-01-10T14:40:03;3.47;;;1.50;;
13592;SDS011;6867;50.998;4.250;2023-01-10T14:42:33;7.97;;;1.63;;
13592;SDS011;6867;50.998;4.250;2023-01-10T14:45:01;5.27;;;1.40;;
13592;SDS011;6867;50.998;4.250;2023-01-10T14:47:34;5.10;;;1.30;;
13592;SDS011;6867;50.998;4.250;2023-01-10T14:50:02;5.17;;;1.43;;
13592;SDS011;6867;50.998;4.250;2023-01-10T14:52:29;3.63;;;1.23;;
13592;SDS011;6867;50.998;4.250;2023-01-10T14:55:01;2.50;;;1.10;;
13592;SDS011;6867;50.998;4.250;2023-01-10T14:57:35;1.47;;;1.00;;
13592;SDS011;6867;50.998;4.250;2023-01-10T15:00:03;2.63;;;1.27;;
13592;SDS011;6867;50.998;4.250;2023-01-10T15:02:31;3.37;;;1.07;;
13592;SDS011;6867;50.998;4.250;2023-01-10T15:04:59;1.27;;;0.90;;
13592;SDS011;6867;50.998;4.250;2023-01-10T15:07:34;1.70;;;1.10;;
13592;SDS011;6867;50.998;4.250;2023-01-10T15:10:02;4.37;;;1.40;;
13592;SDS011;6867;50.998;4.250;2023-01-10T15:12:44;1.17;;;0.70;;
13592;SDS011;6867;50.998;4.250;2023-01-10T15:15:13;2.43;;;1.33;;
13592;SDS011;6867;50.998;4.250;2023-01-10T15:17:43;1.17;;;0.80;;
13592;SDS011;6867;50.998;4.250;2023-01-10T15:20:12;1.97;;;1.10;;
13592;SDS011;6867;50.998;4.250;2023-01-10T15:22:41;1.37;;;0.90;;
13592;SDS011;6867;50.998;4.250;2023-01-10T15:25:23;0.93;;;0.70;;